Time;durP1;ratioP1;P1;durP2;ratioP2;P2;SDS_P1;SDS_P2;PMS_P1;PMS_P2;Temp;Humidity;BMP_temperature;BMP_pressure;BME280_temperature;BME280_humidity;BME280_pressure;Samples;Min_cycle;Max_cycle;Signal;HPM_P1;HPM_P2
2022/10/18 00:01:55;;;;;;;;;19.50;18.50;;;;;18.76;100.00;102011.56;5077878;27;45434;-76
2022/10/18 00:04:21;;;;;;;;;20.25;14.00;;;;;19.35;100.00;102112.69;5077339;28;45681;-76
2022/10/18 00:06:46;;;;;;;;;18.75;14.75;;;;;19.05;100.00;102056.34;5077963;27;45432;-75
2022/10/18 00:09:12;;;;;;;;;17.25;16.25;;;;;19.37;100.00;102112.56;5077789;27;46137;-76
2022/10/18 00:11:37;;;;;;;;;17.00;17.00;;;;;19.37;100.00;102110.75;5080082;27;45432;-77
2022/10/18 00:14:03;;;;;;;;;15.25;15.25;;;;;19.37;100.00;102108.03;5081531;27;45398;-77
2022/10/18 00:16:29;;;;;;;;;19.50;16.00;;;;;19.33;100.00;102106.53;5081277;27;45323;-77
2022/10/18 00:18:54;;;;;;;;;16.50;15.50;;;;;19.36;100.00;102114.41;5080836;27;46328;-76
2022/10/18 00:21:22;;;;;;;;;18.50;17.50;;;;;19.39;100.00;102116.03;5080997;27;45531;-76
2022/10/18 00:23:49;;;;;;;;;18.50;16.50;;;;;19.39;100.00;102118.75;5080662;27;45319;-77
2022/10/18 00:26:23;;;;;;;;;22.50;19.50;;;;;19.38;100.00;102123.31;5080406;27;45412;-77
2022/10/18 00:28:57;;;;;;;;;22.25;17.00;;;;;19.39;100.00;102125.00;5080401;27;46135;-76
2022/10/18 00:31:28;;;;;;;;;19.25;19.25;;;;;19.39;100.00;102118.75;5080256;27;45263;-76
2022/10/18 00:33:56;;;;;;;;;18.50;18.00;;;;;19.39;100.00;102127.72;5080527;27;45346;-76
2022/10/18 00:36:23;;;;;;;;;18.50;17.25;;;;;19.39;100.00;102116.88;5079572;27;45346;-76
2022/10/18 00:38:48;;;;;;;;;18.50;17.50;;;;;19.41;100.00;102127.59;5074634;27;47199;-76
2022/10/18 00:41:17;;;;;;;;;18.50;16.50;;;;;19.02;100.00;102059.28;5059956;28;45392;-76
2022/10/18 00:43:59;;;;;;;;;20.50;20.00;;;;;19.39;100.00;102124.16;5059968;28;45294;-76
2022/10/18 00:46:30;;;;;;;;;17.25;17.25;;;;;19.39;100.00;102129.56;5059571;28;45565;-75
2022/10/18 00:49:11;;;;;;;;;23.50;20.00;;;;;19.35;100.00;102128.91;5059574;28;47396;-75
2022/10/18 00:52:05;;;;;;;;;17.75;17.00;;;;;19.37;100.00;102132.38;5087375;27;45999;-75
2022/10/18 00:54:33;;;;;;;;;18.25;16.75;;;;;19.37;100.00;102126.97;5077839;28;45425;-75
2022/10/18 00:56:59;;;;;;;;;19.00;19.00;;;;;19.38;100.00;102131.41;5080425;27;45384;-76
2022/10/18 00:59:25;;;;;;;;;16.25;16.25;;;;;19.21;100.00;102104.75;5078485;28;46088;-75
2022/10/18 01:01:51;;;;;;;;;23.50;19.50;;;;;19.39;100.00;102141.22;5079959;27;45360;-76
2022/10/18 01:04:18;;;;;;;;;19.25;19.25;;;;;19.40;100.00;102140.25;5096959;27;45357;-75
2022/10/18 01:07:18;;;;;;;;;16.00;16.00;;;;;19.40;100.00;102136.72;5106603;27;45591;-75
2022/10/18 01:09:57;;;;;;;;;17.25;16.50;;;;;19.41;100.00;102142.00;5106170;27;45398;-75
2022/10/18 01:12:52;;;;;;;;;18.75;18.75;;;;;19.41;100.00;102147.41;5100639;27;45320;-76
2022/10/18 01:15:31;;;;;;;;;18.25;15.75;;;;;19.40;100.00;102140.25;5086629;27;45336;-76
2022/10/18 01:18:26;;;;;;;;;19.00;16.75;;;;;19.38;100.00;102141.34;5079464;27;45439;-76
2022/10/18 01:21:08;;;;;;;;;17.25;16.75;;;;;19.32;100.00;102139.97;5079095;28;47188;-76
2022/10/18 01:24:01;;;;;;;;;21.25;18.75;;;;;19.39;100.00;102146.66;5079539;28;45516;-75
2022/10/18 01:27:00;;;;;;;;;17.75;17.25;;;;;19.37;100.00;102143.22;5079103;28;45047;-76
2022/10/18 01:29:46;;;;;;;;;12.75;12.50;;;;;19.38;100.00;102144.94;5059052;28;45465;-75
2022/10/18 01:32:32;;;;;;;;;22.00;19.25;;;;;19.37;100.00;102151.31;5059128;28;46142;-75
2022/10/18 01:35:03;;;;;;;;;20.50;17.25;;;;;19.37;100.00;102154.03;5058721;28;45417;-75
2022/10/18 01:37:31;;;;;;;;;20.00;17.75;;;;;19.33;100.00;102157.94;5059124;28;45523;-75
2022/10/18 01:39:58;;;;;;;;;19.25;19.00;;;;;19.30;100.00;102153.63;5072006;28;45444;-75
2022/10/18 01:42:25;;;;;;;;;20.00;17.75;;;;;19.24;100.00;102145.09;5079170;27;46331;-76
2022/10/18 01:44:52;;;;;;;;;18.00;18.00;;;;;19.20;100.00;102144.44;5079317;27;45694;-75
2022/10/18 01:47:19;;;;;;;;;18.25;18.25;;;;;19.21;100.00;102150.75;5079256;27;45315;-75
2022/10/18 01:49:45;;;;;;;;;20.25;19.25;;;;;19.22;100.00;102149.75;5078600;27;45672;-75
2022/10/18 01:52:16;;;;;;;;;22.25;21.00;;;;;19.24;100.00;102136.97;5079100;27;47173;-76
2022/10/18 01:54:49;;;;;;;;;18.50;18.50;;;;;18.92;100.00;102067.22;5079225;28;45344;-75
2022/10/18 01:57:33;;;;;;;;;18.25;16.50;;;;;19.24;100.00;102131.56;5077724;28;45452;-75
2022/10/18 02:00:04;;;;;;;;;20.50;19.50;;;;;19.21;100.00;102135.38;5058675;28;45422;-74
2022/10/18 02:02:39;;;;;;;;;16.00;14.75;;;;;19.20;100.00;102135.47;5061049;28;46049;-75
2022/10/18 02:05:25;;;;;;;;;18.75;18.75;;;;;19.17;100.00;102137.44;5078831;28;45489;-75
2022/10/18 02:08:24;;;;;;;;;20.75;18.25;;;;;19.09;100.00;102131.72;5078878;27;45564;-75
2022/10/18 02:10:59;;;;;;;;;19.00;19.00;;;;;18.91;100.00;102111.44;5016264;28;45449;-75
2022/10/18 02:13:28;;;;;;;;;18.75;18.75;;;;;19.03;100.00;102144.81;5015892;28;46146;-75
2022/10/18 02:16:00;;;;;;;;;16.75;16.75;;;;;18.72;100.00;102088.44;5015723;28;45528;-74
2022/10/18 02:18:35;;;;;;;;;18.25;18.25;;;;;18.77;100.00;102099.78;5016355;28;45343;-74
2022/10/18 02:21:03;;;;;;;;;24.75;19.75;;;;;18.94;100.00;102132.88;5015732;28;45308;-75
2022/10/18 02:23:31;;;;;;;;;16.25;14.00;;;;;18.91;100.00;102136.66;5015912;28;47249;-75
2022/10/18 02:25:57;;;;;;;;;18.00;17.50;;;;;18.93;100.00;102133.81;5016106;28;45558;-73
2022/10/18 02:28:22;;;;;;;;;20.50;18.75;;;;;18.91;100.00;102138.47;5015812;28;45478;-73
2022/10/18 02:30:54;;;;;;;;;19.75;19.75;;;;;18.89;100.00;102138.59;5016305;28;45519;-75
2022/10/18 02:33:55;;;;;;;;;22.00;18.25;;;;;18.70;100.00;102105.75;5015107;28;45667;-75
2022/10/18 02:36:33;;;;;;;;;18.25;17.00;;;;;18.83;100.00;102142.56;4956725;28;45455;-76
2022/10/18 02:39:06;;;;;;;;;14.75;13.75;;;;;18.39;100.00;102070.97;4956746;28;45466;-76
2022/10/18 02:41:32;;;;;;;;;19.50;18.75;;;;;18.76;100.00;102138.59;4956521;28;45306;-75
2022/10/18 02:43:57;;;;;;;;;19.50;19.50;;;;;18.74;100.00;102134.28;4956249;28;45423;-75
2022/10/18 02:46:23;;;;;;;;;20.25;17.75;;;;;18.71;100.00;102140.75;4956721;28;45500;-75
2022/10/18 02:48:48;;;;;;;;;22.25;18.25;;;;;18.37;100.00;102089.13;5012384;28;45368;-76
2022/10/18 02:51:15;;;;;;;;;16.25;16.25;;;;;18.69;100.00;102150.81;5015623;28;45445;-76
2022/10/18 02:53:40;;;;;;;;;20.75;20.75;;;;;18.68;100.00;102151.78;5015465;28;45471;-76
2022/10/18 02:56:06;;;;;;;;;17.00;14.75;;;;;18.69;100.00;102156.19;5014654;28;45573;-75
2022/10/18 02:58:31;;;;;;;;;16.50;16.50;;;;;18.63;100.00;102146.72;5015268;28;45407;-75
2022/10/18 03:00:57;;;;;;;;;22.25;22.00;;;;;18.70;100.00;102154.38;5015236;28;45442;-75
2022/10/18 03:03:22;;;;;;;;;22.25;21.75;;;;;18.70;100.00;102157.09;5014775;28;47111;-75
2022/10/18 03:05:48;;;;;;;;;23.00;21.75;;;;;18.69;100.00;102153.50;5015210;28;45426;-75
2022/10/18 03:08:14;;;;;;;;;19.75;19.50;;;;;18.67;100.00;102158.16;5015332;28;45568;-75
2022/10/18 03:10:39;;;;;;;;;24.00;19.50;;;;;18.63;100.00;102148.56;5015229;28;45549;-75
2022/10/18 03:13:04;;;;;;;;;18.75;18.75;;;;;18.68;100.00;102162.59;5076476;28;46374;-75
2022/10/18 03:15:30;;;;;;;;;22.50;20.25;;;;;18.60;100.00;102149.63;5077907;28;45500;-75
2022/10/18 03:17:55;;;;;;;;;21.00;19.50;;;;;18.69;100.00;102158.91;5076544;28;45649;-75
2022/10/18 03:20:21;;;;;;;;;21.25;19.75;;;;;18.69;100.00;102169.72;5077460;28;45342;-76
2022/10/18 03:22:46;;;;;;;;;29.25;23.75;;;;;18.63;100.00;102156.66;5077592;28;45337;-76
2022/10/18 03:25:12;;;;;;;;;21.50;20.50;;;;;18.66;100.00;102175.34;5077271;27;45358;-75
2022/10/18 03:27:37;;;;;;;;;15.75;15.75;;;;;18.66;100.00;102180.75;5077774;27;45394;-76
2022/10/18 03:30:04;;;;;;;;;26.75;23.50;;;;;18.33;100.00;102125.44;5077693;27;45339;-76
2022/10/18 03:32:30;;;;;;;;;20.75;19.75;;;;;18.65;100.00;102184.44;5077328;27;45456;-75
2022/10/18 03:34:55;;;;;;;;;19.75;18.25;;;;;18.66;100.00;102186.16;5077021;27;45445;-75
2022/10/18 03:37:21;;;;;;;;;20.25;20.00;;;;;18.15;100.00;102104.16;5077500;27;45853;-75
2022/10/18 03:39:46;;;;;;;;;20.00;20.00;;;;;18.26;100.00;102116.91;5077370;27;45323;-75
2022/10/18 03:42:11;;;;;;;;;25.00;20.75;;;;;18.70;100.00;102181.41;5077651;28;45582;-75
2022/10/18 03:44:37;;;;;;;;;28.50;25.50;;;;;18.72;100.00;102199.25;5078141;27;45438;-75
2022/10/18 03:47:02;;;;;;;;;19.25;18.25;;;;;18.72;100.00;102188.44;5080771;27;45694;-74
2022/10/18 03:49:27;;;;;;;;;22.00;16.75;;;;;18.69;100.00;102180.53;5079612;28;45343;-75
2022/10/18 03:51:53;;;;;;;;;20.00;18.75;;;;;18.68;100.00;102186.94;5080627;27;45426;-74
2022/10/18 03:54:18;;;;;;;;;20.75;20.25;;;;;18.72;100.00;102185.75;5080690;27;45500;-75
2022/10/18 03:56:43;;;;;;;;;18.00;17.00;;;;;18.72;100.00;102191.16;5080771;27;45373;-74
2022/10/18 03:59:09;;;;;;;;;25.00;19.75;;;;;18.73;100.00;102197.41;5080632;27;45772;-74
2022/10/18 04:01:34;;;;;;;;;22.00;19.75;;;;;18.72;100.00;102196.56;5080734;28;46584;-75
2022/10/18 04:03:59;;;;;;;;;20.50;19.00;;;;;18.70;100.00;102198.47;5080074;28;45421;-74
2022/10/18 04:06:25;;;;;;;;;19.75;18.25;;;;;18.73;100.00;102203.66;5079726;28;45386;-74
2022/10/18 04:08:50;;;;;;;;;19.25;17.25;;;;;18.73;100.00;102200.09;5080240;27;45584;-73
2022/10/18 04:11:15;;;;;;;;;24.25;17.75;;;;;18.74;100.00;102199.13;5080461;27;45235;-74
2022/10/18 04:13:41;;;;;;;;;22.25;21.25;;;;;18.75;100.00;102200.88;5080654;27;45376;-74
2022/10/18 04:16:06;;;;;;;;;20.75;19.00;;;;;18.74;100.00;102205.41;5080088;27;45294;-74
2022/10/18 04:18:31;;;;;;;;;20.50;19.00;;;;;18.73;100.00;102203.66;5080783;27;45262;-74
2022/10/18 04:20:57;;;;;;;;;20.25;17.50;;;;;18.74;100.00;102215.34;5080628;27;47116;-74
2022/10/18 04:23:23;;;;;;;;;23.25;22.00;;;;;18.43;100.00;102158.94;5080939;27;45250;-75
2022/10/18 04:25:48;;;;;;;;;27.75;23.25;;;;;18.70;100.00;102203.88;5081401;27;45306;-75
2022/10/18 04:28:13;;;;;;;;;15.25;14.25;;;;;18.43;100.00;102164.31;5082850;27;45299;-74
2022/10/18 04:30:38;;;;;;;;;20.75;20.75;;;;;18.67;100.00;102201.41;5082550;27;45227;-74
2022/10/18 04:33:04;;;;;;;;;26.50;24.00;;;;;18.63;100.00;102197.19;5080657;27;45243;-75
2022/10/18 04:35:29;;;;;;;;;23.25;22.75;;;;;18.61;100.00;102196.44;5080300;27;45470;-75
2022/10/18 04:37:54;;;;;;;;;19.50;19.50;;;;;18.58;100.00;102196.66;5080237;27;45528;-74
2022/10/18 04:40:20;;;;;;;;;19.00;19.00;;;;;18.53;100.00;102197.00;5079939;27;46323;-75
2022/10/18 04:42:46;;;;;;;;;17.75;15.75;;;;;18.40;100.00;102188.88;5079094;28;45863;-75
2022/10/18 04:45:11;;;;;;;;;22.75;18.25;;;;;18.38;100.00;102198.94;5080146;27;45399;-75
2022/10/18 04:47:37;;;;;;;;;21.75;20.50;;;;;18.38;100.00;102209.72;5079612;27;45509;-74
2022/10/18 04:50:03;;;;;;;;;19.75;18.50;;;;;18.18;100.00;102175.13;5080015;27;45473;-74
2022/10/18 04:52:29;;;;;;;;;21.50;19.00;;;;;18.37;100.00;102208.00;5079466;27;45419;-74
2022/10/18 04:54:54;;;;;;;;;22.00;22.00;;;;;18.34;100.00;102208.19;5079693;27;45434;-74
2022/10/18 04:57:19;;;;;;;;;20.50;16.00;;;;;18.31;100.00;102208.41;5079171;27;45400;-74
2022/10/18 04:59:45;;;;;;;;;23.25;20.50;;;;;18.07;100.00;102182.13;5078588;27;46564;-74
2022/10/18 05:02:10;;;;;;;;;19.25;14.75;;;;;18.17;100.00;102206.66;5079707;28;45252;-74
2022/10/18 05:04:35;;;;;;;;;19.00;17.50;;;;;18.21;100.00;102215.44;5079733;28;45350;-74
2022/10/18 05:07:01;;;;;;;;;22.25;18.50;;;;;18.15;100.00;102208.59;5079587;27;45481;-74
2022/10/18 05:09:27;;;;;;;;;22.75;20.00;;;;;18.20;100.00;102213.69;5079666;27;46342;-76
2022/10/18 05:11:52;;;;;;;;;14.75;13.75;;;;;18.19;100.00;102222.75;5080032;27;45415;-77
2022/10/18 05:14:17;;;;;;;;;23.75;22.25;;;;;18.18;100.00;102229.13;5078855;28;45350;-76
2022/10/18 05:16:43;;;;;;;;;19.00;19.00;;;;;18.13;100.00;102221.34;5080260;27;45632;-76
2022/10/18 05:19:08;;;;;;;;;24.50;19.25;;;;;18.12;100.00;102225.00;5079912;27;46030;-76
2022/10/18 05:21:34;;;;;;;;;20.25;19.25;;;;;18.11;100.00;102229.56;5079988;27;45334;-76
2022/10/18 05:23:59;;;;;;;;;22.00;18.50;;;;;18.12;100.00;102220.47;5079858;27;45208;-74
2022/10/18 05:26:24;;;;;;;;;22.75;21.75;;;;;18.12;100.00;102231.25;5079090;27;45430;-73
2022/10/18 05:28:50;;;;;;;;;19.50;18.75;;;;;17.85;100.00;102189.94;5079224;27;46173;-74
2022/10/18 05:31:15;;;;;;;;;20.25;19.00;;;;;18.16;100.00;102224.69;5078367;27;45466;-73
2022/10/18 05:33:40;;;;;;;;;19.00;18.25;;;;;18.17;100.00;102222.88;5078730;27;45416;-74
2022/10/18 05:36:06;;;;;;;;;22.75;19.75;;;;;18.19;100.00;102217.38;5078691;27;45406;-73
2022/10/18 05:38:32;;;;;;;;;26.25;22.00;;;;;18.20;100.00;102221.81;5074333;27;46305;-68
2022/10/18 05:40:58;;;;;;;;;22.25;20.25;;;;;17.95;100.00;102177.56;5074573;28;45425;-68
2022/10/18 05:43:27;;;;;;;;;19.00;16.50;;;;;18.21;100.00;102223.53;5075326;27;45462;-70
2022/10/18 05:45:53;;;;;;;;;18.50;18.50;;;;;17.84;100.00;102156.66;5075760;27;45424;-69
2022/10/18 05:48:18;;;;;;;;;18.50;17.00;;;;;18.27;100.00;102228.50;5076990;28;46121;-74
2022/10/18 05:50:43;;;;;;;;;20.50;18.75;;;;;18.29;100.00;102237.38;5078267;28;45373;-73
2022/10/18 05:53:09;;;;;;;;;17.25;17.25;;;;;18.31;100.00;102240.81;5078777;28;45281;-74
2022/10/18 05:55:35;;;;;;;;;19.25;19.00;;;;;18.01;100.00;102190.66;5078768;28;45411;-74
2022/10/18 05:58:02;;;;;;;;;23.25;21.25;;;;;18.33;100.00;102247.84;5077317;28;46620;-73
2022/10/18 06:00:27;;;;;;;;;18.75;17.25;;;;;18.35;100.00;102239.63;5077962;27;45314;-74
2022/10/18 06:02:53;;;;;;;;;17.25;16.00;;;;;18.38;100.00;102243.97;5078570;28;45368;-74
2022/10/18 06:05:19;;;;;;;;;16.75;16.25;;;;;18.39;100.00;102243.84;5078236;28;45831;-74
2022/10/18 06:07:44;;;;;;;;;17.25;16.00;;;;;18.40;100.00;102248.31;5077893;28;46140;-73
2022/10/18 06:10:09;;;;;;;;;17.25;16.00;;;;;18.09;100.00;102188.28;5078113;27;45345;-74
2022/10/18 06:12:35;;;;;;;;;21.00;18.00;;;;;18.43;100.00;102234.56;5077927;27;45352;-74
2022/10/18 06:15:00;;;;;;;;;17.75;15.75;;;;;18.10;100.00;102183.78;5078723;27;45363;-74
2022/10/18 06:17:26;;;;;;;;;17.25;16.50;;;;;17.86;100.00;102143.94;5076854;28;47185;-75
2022/10/18 06:19:51;;;;;;;;;16.75;16.00;;;;;18.44;100.00;102241.72;5077650;27;45426;-74
2022/10/18 06:22:16;;;;;;;;;17.25;16.25;;;;;18.34;100.00;102237.91;5078263;27;45291;-74
2022/10/18 06:24:41;;;;;;;;;16.00;15.00;;;;;18.45;100.00;102258.78;5077926;27;45294;-74
2022/10/18 06:27:08;;;;;;;;;16.25;16.25;;;;;18.44;100.00;102257.91;5077554;27;46108;-74
2022/10/18 06:29:34;;;;;;;;;16.50;14.00;;;;;18.46;100.00;102260.50;5077797;27;45485;-73
2022/10/18 06:32:00;;;;;;;;;20.25;18.00;;;;;18.32;100.00;102240.72;5077967;27;45664;-74
2022/10/18 06:34:25;;;;;;;;;18.75;16.25;;;;;18.48;100.00;102262.13;5077822;27;45502;-73
2022/10/18 06:36:50;;;;;;;;;17.25;17.25;;;;;18.50;100.00;102262.03;5077265;27;46093;-73
2022/10/18 06:39:16;;;;;;;;;16.00;14.75;;;;;18.52;100.00;102264.63;5077530;27;45380;-72
2022/10/18 06:41:41;;;;;;;;;15.25;13.50;;;;;18.53;100.00;102271.75;5077198;27;45340;-73
2022/10/18 06:44:13;;;;;;;;;18.00;14.50;;;;;18.47;100.00;102265.81;5077564;27;45408;-72
2022/10/18 06:46:41;;;;;;;;;17.25;15.75;;;;;18.56;100.00;102274.25;5077240;27;45464;-72
2022/10/18 06:49:07;;;;;;;;;18.75;14.50;;;;;18.59;100.00;102276.75;5077230;27;45504;-73
2022/10/18 06:51:32;;;;;;;;;17.50;17.50;;;;;18.60;100.00;102278.50;5077823;27;45287;-71
2022/10/18 06:53:57;;;;;;;;;18.25;14.50;;;;;18.58;100.00;102275.03;5077176;27;45371;-73
2022/10/18 06:56:23;;;;;;;;;16.50;16.50;;;;;18.65;100.00;102277.19;5076860;27;46466;-73
2022/10/18 06:58:48;;;;;;;;;17.50;16.50;;;;;18.60;100.00;102265.84;5076434;27;45376;-73
2022/10/18 07:01:16;;;;;;;;;15.00;14.75;;;;;18.67;100.00;102283.34;5077371;28;45625;-73
2022/10/18 07:03:42;;;;;;;;;15.00;15.00;;;;;18.68;100.00;102284.22;5077772;28;45380;-73
2022/10/18 07:06:10;;;;;;;;;16.50;13.75;;;;;18.71;100.00;102284.00;5076742;28;47030;-73
2022/10/18 07:08:36;;;;;;;;;12.25;12.00;;;;;18.58;100.00;102256.09;5077167;28;45367;-73
2022/10/18 07:11:01;;;;;;;;;18.75;15.50;;;;;18.75;100.00;102288.22;5077285;28;45411;-74
2022/10/18 07:13:31;;;;;;;;;17.75;15.75;;;;;18.35;100.00;102218.03;5076753;28;45409;-72
2022/10/18 07:16:06;;;;;;;;;18.25;16.00;;;;;18.64;100.00;102261.09;5075355;28;46229;-72
2022/10/18 07:18:36;;;;;;;;;17.50;16.50;;;;;18.85;100.00;102299.25;5076547;28;45415;-74
2022/10/18 07:21:08;;;;;;;;;18.50;16.75;;;;;18.88;100.00;102295.47;5076597;27;45392;-74
2022/10/18 07:23:35;;;;;;;;;19.25;17.25;;;;;18.92;100.00;102305.13;5076823;27;45335;-74
2022/10/18 07:26:03;;;;;;;;;18.25;18.25;;;;;18.89;100.00;102295.38;5077194;27;45345;-74
2022/10/18 07:28:29;;;;;;;;;13.75;13.75;;;;;18.99;100.00;102306.44;5076897;27;45315;-75
2022/10/18 07:30:54;;;;;;;;;16.00;15.00;;;;;19.06;100.00;102313.16;5064653;27;45615;-75
2022/10/18 07:33:20;;;;;;;;;12.75;12.75;;;;;19.07;100.00;102289.66;5069832;27;45625;-75
2022/10/18 07:35:46;;;;;;;;;15.75;14.75;;;;;19.24;100.00;102305.53;5093883;27;45378;-75
2022/10/18 07:38:12;;;;;;;;;17.00;15.75;;;;;19.32;100.00;102315.81;5095915;27;45982;-74
2022/10/18 07:40:37;;;;;;;;;13.00;13.00;;;;;19.37;100.00;102316.38;5096090;27;45493;-75
2022/10/18 07:43:03;;;;;;;;;16.75;15.50;;;;;19.43;100.00;102315.91;5097932;27;45347;-74
2022/10/18 07:45:28;;;;;;;;;15.67;12.67;;;;;19.40;99.86;102316.13;5097450;27;47265;-74
2022/10/18 07:47:55;;;;;;;;;17.75;15.75;;;;;19.39;100.00;102322.53;5083647;27;45364;-75
2022/10/18 07:50:21;;;;;;;;;15.25;14.50;;;;;19.42;100.00;102325.03;5078130;27;45397;-72
2022/10/18 07:52:46;;;;;;;;;12.67;12.33;;;;;19.15;100.00;102282.75;5076626;27;45295;-74
2022/10/18 07:55:12;;;;;;;;;14.75;12.50;;;;;18.71;100.00;102196.66;5076748;27;45373;-74
2022/10/18 07:57:37;;;;;;;;;12.50;11.25;;;;;19.46;100.00;102331.94;5076174;27;45416;-75
2022/10/18 08:00:03;;;;;;;;;14.25;14.25;;;;;19.49;99.55;102331.72;5076261;28;45562;-74
2022/10/18 08:02:28;;;;;;;;;11.50;11.50;;;;;19.46;99.16;102321.13;5077027;28;45481;-75
2022/10/18 08:04:53;;;;;;;;;13.25;13.00;;;;;19.37;100.00;102307.38;5076678;28;46463;-74
2022/10/18 08:07:19;;;;;;;;;12.75;11.25;;;;;19.58;98.95;102335.56;5076645;27;45303;-73
2022/10/18 08:09:44;;;;;;;;;15.25;15.00;;;;;19.58;99.39;102341.00;5076649;27;45356;-75
2022/10/18 08:12:10;;;;;;;;;17.75;13.50;;;;;19.59;99.52;102356.25;5076782;27;45365;-74
2022/10/18 08:14:35;;;;;;;;;15.75;14.25;;;;;19.36;98.87;102320.03;5076699;27;47192;-74
2022/10/18 08:17:00;;;;;;;;;12.75;12.00;;;;;19.54;98.64;102350.31;5076566;27;45377;-75
2022/10/18 08:19:26;;;;;;;;;12.00;10.67;;;;;19.47;98.50;102340.91;5086959;27;45741;-75
2022/10/18 08:21:51;;;;;;;;;10.75;10.50;;;;;18.73;98.60;102209.06;5131322;27;47615;-74
2022/10/18 08:24:16;;;;;;;;;11.67;10.33;;;;;19.58;98.66;102356.38;5096617;27;46022;-74
2022/10/18 08:26:41;;;;;;;;;12.00;10.25;;;;;19.63;98.17;102367.75;5096884;27;45564;-74
2022/10/18 08:29:07;;;;;;;;;12.67;12.67;;;;;19.53;96.73;102343.19;5096672;27;45234;-74
2022/10/18 08:31:33;;;;;;;;;15.00;13.00;;;;;19.67;98.00;102366.53;5085280;27;45661;-74
2022/10/18 08:33:59;;;;;;;;;11.00;11.00;;;;;19.69;95.91;102364.56;5080310;27;45398;-74
2022/10/18 08:36:24;;;;;;;;;14.33;12.67;;;;;19.75;96.98;102364.13;5079738;27;45284;-74
2022/10/18 08:38:49;;;;;;;;;13.00;11.75;;;;;19.78;96.90;102363.91;5079999;27;45288;-74
2022/10/18 08:41:24;;;;;;;;;8.33;8.33;;;;;19.86;96.38;102365.25;5080103;27;45270;-74
2022/10/18 08:44:02;;;;;;;;;13.00;12.33;;;;;19.87;95.88;102366.94;5079413;28;46352;-74
2022/10/18 08:46:27;;;;;;;;;11.67;11.67;;;;;19.88;96.60;102369.56;5079354;27;45403;-74
2022/10/18 08:48:55;;;;;;;;;13.33;12.67;;;;;19.84;95.34;102365.34;5078310;27;45291;-74
2022/10/18 08:51:30;;;;;;;;;10.00;10.00;;;;;19.85;94.64;102364.34;5077262;28;45609;-73
2022/10/18 08:54:05;;;;;;;;;14.33;13.33;;;;;19.87;95.29;102366.94;5077870;28;45677;-73
2022/10/18 08:56:32;;;;;;;;;9.33;9.00;;;;;19.89;94.62;102367.72;5078830;27;45425;-74
2022/10/18 08:58:57;;;;;;;;;9.00;9.00;;;;;19.75;93.38;102342.47;5078874;28;45402;-74
2022/10/18 09:01:47;;;;;;;;;12.00;9.00;;;;;19.83;93.37;102350.09;5078969;28;45398;-74
2022/10/18 09:04:18;;;;;;;;;13.25;12.25;;;;;19.98;93.51;102365.19;5078256;28;45507;-74
2022/10/18 09:07:00;;;;;;;;;9.67;9.67;;;;;20.04;92.75;102353.03;5078473;28;45316;-74
2022/10/18 09:09:41;;;;;;;;;11.00;10.50;;;;;20.32;91.61;102356.38;5078029;28;45374;-74
2022/10/18 09:12:25;;;;;;;;;9.00;9.00;;;;;20.32;92.13;102361.81;5079464;27;45391;-74
2022/10/18 09:15:10;;;;;;;;;11.00;11.00;;;;;20.21;91.35;102340.09;5078932;28;45558;-74
2022/10/18 09:18:00;;;;;;;;;9.00;8.67;;;;;20.33;91.35;102358.13;5078891;27;45367;-74
2022/10/18 09:20:33;;;;;;;;;12.00;11.50;;;;;20.33;90.80;102360.84;5078733;28;45337;-74
2022/10/18 09:23:14;;;;;;;;;10.50;10.50;;;;;20.37;91.13;102358.78;5079132;27;45461;-73
2022/10/18 09:25:47;;;;;;;;;15.00;14.00;;;;;20.39;90.21;102363.06;5078756;27;46074;-74
2022/10/18 09:28:12;;;;;;;;;15.00;10.33;;;;;20.41;90.53;102360.25;5078816;28;45409;-75
2022/10/18 09:31:14;;;;;;;;;13.50;13.50;;;;;20.28;90.42;102344.91;5077262;28;45298;-74
2022/10/18 09:33:48;;;;;;;;;11.75;11.50;;;;;20.23;89.40;102336.28;5077434;28;45363;-74
2022/10/18 09:36:21;;;;;;;;;11.00;10.67;;;;;20.43;88.86;102363.72;5078363;27;45337;-74
2022/10/18 09:38:58;;;;;;;;;11.00;10.67;;;;;20.40;88.67;102342.25;5078588;27;45418;-74
2022/10/18 09:41:31;;;;;;;;;11.00;10.67;;;;;20.64;88.23;102362.06;5078847;27;45357;-75
2022/10/18 09:44:14;;;;;;;;;11.33;11.33;;;;;21.46;84.57;102342.13;5078142;27;45319;-74
2022/10/18 09:46:46;;;;;;;;;12.25;12.00;;;;;21.85;81.91;102349.88;5078248;27;46319;-74
2022/10/18 09:49:28;;;;;;;;;11.00;11.00;;;;;21.58;84.23;102350.28;5077894;27;45494;-74
2022/10/18 09:51:55;;;;;;;;;11.33;9.33;;;;;21.13;83.75;102315.84;5077077;28;45685;-74
2022/10/18 09:54:30;;;;;;;;;10.33;8.33;;;;;21.38;83.04;102355.47;5078183;28;45396;-75
2022/10/18 09:57:01;;;;;;;;;9.67;8.33;;;;;21.46;83.71;102363.84;5078528;27;46522;-73
2022/10/18 09:59:32;;;;;;;;;9.33;9.33;;;;;21.48;82.31;102361.00;5078197;27;45492;-73
2022/10/18 10:01:58;;;;;;;;;8.67;8.67;;;;;21.41;83.03;102360.63;5078342;28;45475;-74
2022/10/18 10:04:23;;;;;;;;;10.25;10.25;;;;;21.35;82.16;102358.41;5078267;28;45502;-74
2022/10/18 10:06:51;;;;;;;;;10.50;10.50;;;;;21.44;83.80;102364.97;5078070;27;47136;-74
2022/10/18 10:09:23;;;;;;;;;9.00;9.00;;;;;21.52;83.07;102368.78;5078007;28;45521;-72
2022/10/18 10:11:50;;;;;;;;;9.00;9.00;;;;;21.54;82.80;102349.69;5077994;27;45471;-75
2022/10/18 10:14:21;;;;;;;;;8.25;8.25;;;;;21.52;81.92;102360.63;5076977;28;45432;-73
2022/10/18 10:16:57;;;;;;;;;7.67;7.67;;;;;21.37;83.24;102348.31;5078319;27;46201;-73
2022/10/18 10:19:30;;;;;;;;;13.00;10.00;;;;;21.42;83.21;102354.22;5077332;27;45418;-73
2022/10/18 10:22:09;;;;;;;;;9.00;7.25;;;;;21.44;83.94;102356.81;5077844;27;45389;-75
2022/10/18 10:24:49;;;;;;;;;7.00;7.00;;;;;21.25;84.04;102342.00;5077875;27;45287;-75
2022/10/18 10:27:23;;;;;;;;;6.50;6.50;;;;;21.38;81.98;102366.31;5077263;27;46350;-74
2022/10/18 10:29:54;;;;;;;;;7.67;6.00;;;;;21.13;81.35;102313.13;5077647;27;45360;-74
2022/10/18 10:32:21;;;;;;;;;5.00;5.00;;;;;21.41;81.14;102357.06;5060119;28;45346;-73
2022/10/18 10:34:47;;;;;;;;;8.67;7.67;;;;;21.37;81.41;102353.72;5077757;27;45537;-75
2022/10/18 10:37:31;;;;;;;;;10.00;9.00;;;;;21.28;81.57;102313.75;5078028;27;45756;-74
2022/10/18 10:40:20;;;;;;;;;8.25;8.25;;;;;21.62;80.69;102363.53;5078253;27;45303;-75
2022/10/18 10:42:54;;;;;;;;;9.33;9.33;;;;;21.57;79.49;102354.88;5078114;28;45377;-70
2022/10/18 10:45:22;;;;;;;;;10.75;9.25;;;;;21.63;81.13;102357.06;5071587;28;45410;-68
2022/10/18 10:47:49;;;;;;;;;5.67;5.67;;;;;21.63;80.34;102357.06;5074446;27;46550;-69
2022/10/18 10:50:25;;;;;;;;;9.00;8.00;;;;;21.57;80.44;102362.13;5074707;27;45374;-67
2022/10/18 10:52:51;;;;;;;;;8.33;8.00;;;;;21.57;81.73;102354.88;5074850;27;45314;-70
2022/10/18 10:55:21;;;;;;;;;7.00;7.00;;;;;21.50;82.35;102338.19;5071642;28;45474;-70
2022/10/18 10:57:49;;;;;;;;;11.00;8.75;;;;;21.08;80.08;102264.69;5074399;27;46354;-70
2022/10/18 11:00:33;;;;;;;;;9.50;9.50;;;;;21.58;79.66;102355.72;5074439;28;45300;-70
2022/10/18 11:03:11;;;;;;;;;8.33;8.00;;;;;21.61;80.96;102350.06;5074986;28;45433;-69
2022/10/18 11:05:46;;;;;;;;;8.50;8.50;;;;;21.49;79.41;102317.44;5074923;27;45413;-70
2022/10/18 11:08:15;;;;;;;;;5.00;5.00;;;;;21.67;79.68;102344.13;5074483;27;45608;-70
2022/10/18 11:10:57;;;;;;;;;5.67;5.67;;;;;21.75;80.76;102346.22;5074937;27;45404;-69
2022/10/18 11:13:45;;;;;;;;;7.00;7.00;;;;;21.80;80.27;102344.00;5074594;27;45459;-70
2022/10/18 11:16:23;;;;;;;;;5.33;5.33;;;;;21.81;79.55;102346.59;5074315;28;45464;-69
2022/10/18 11:18:52;;;;;;;;;5.00;5.00;;;;;21.80;80.07;102342.13;5073810;27;46150;-69